createdAt,value
2019-02-10T00:00:03.250Z,89.62
2019-02-10T00:05:02.527Z,89.64
2019-02-10T00:10:02.993Z,89.63
2019-02-10T00:15:02.408Z,89.63
2019-02-10T00:20:02.792Z,89.63
2019-02-10T00:25:03.233Z,89.64
2019-02-10T00:30:02.642Z,89.66
2019-02-10T00:35:03.094Z,89.67
2019-02-10T00:40:02.623Z,89.69
2019-02-10T00:45:03.062Z,89.68
2019-02-10T00:50:02.474Z,89.69
2019-02-10T00:55:02.052Z,89.69
2019-02-10T01:00:02.405Z,89.7
2019-02-10T01:05:03.102Z,89.7
2019-02-10T01:10:02.583Z,89.7
2019-02-10T01:15:03.021Z,89.7
2019-02-10T01:20:02.438Z,89.7
2019-02-10T01:25:02.923Z,89.72
2019-02-10T01:30:02.453Z,89.72
2019-02-10T01:35:02.198Z,89.74
2019-02-10T01:40:02.706Z,89.74
2019-02-10T01:45:03.125Z,89.76
2019-02-10T01:50:02.564Z,89.73
2019-02-10T01:55:03.015Z,89.76
2019-02-10T02:00:02.430Z,89.76
2019-02-10T02:05:02.880Z,89.76
2019-02-10T02:10:03.281Z,89.76
2019-02-10T02:15:02.734Z,89.75
2019-02-10T02:20:03.153Z,89.76
2019-02-10T02:25:02.603Z,89.75
2019-02-10T02:30:03.010Z,89.72
2019-02-10T02:35:02.463Z,89.71
2019-02-10T02:40:02.978Z,89.71
2019-02-10T02:45:02.368Z,89.71
2019-02-10T02:50:02.760Z,89.69
2019-02-10T02:55:03.197Z,89.68
2019-02-10T03:00:02.634Z,89.67
2019-02-10T03:05:03.051Z,89.66
2019-02-10T03:10:02.601Z,89.66
2019-02-10T03:15:02.922Z,89.63
2019-02-10T03:20:03.351Z,89.64
2019-02-10T03:25:02.771Z,89.64
2019-02-10T03:30:03.213Z,89.63
2019-02-10T03:35:02.624Z,89.63
2019-02-10T03:40:03.083Z,89.64
2019-02-10T03:45:02.539Z,89.63
2019-02-10T03:50:02.933Z,89.64
2019-02-10T03:55:03.284Z,89.62
2019-02-10T04:00:01.932Z,89.64
2019-02-10T04:05:03.288Z,89.62
2019-02-10T04:10:02.018Z,89.62
2019-02-10T04:15:02.414Z,89.61
2019-02-10T04:20:02.795Z,89.61
2019-02-10T04:25:03.176Z,89.61
2019-02-10T04:30:02.625Z,89.59
2019-02-10T04:35:03.072Z,89.62
2019-02-10T04:40:02.501Z,89.63
2019-02-10T04:45:02.937Z,89.64
2019-02-10T04:50:03.367Z,89.66
2019-02-10T04:55:02.787Z,89.71
2019-02-10T05:00:03.219Z,89.71
2019-02-10T05:05:02.664Z,89.74
2019-02-10T05:10:03.165Z,89.75
2019-02-10T05:15:02.586Z,89.8
2019-02-10T05:20:03.039Z,89.83
2019-02-10T05:25:02.443Z,89.84
2019-02-10T05:30:02.476Z,89.88
2019-02-10T05:35:02.919Z,89.92
2019-02-10T05:40:02.367Z,89.93
2019-02-10T05:45:02.712Z,89.97
2019-02-10T05:50:02.920Z,89.98
2019-02-10T05:55:03.376Z,90.01
2019-02-10T06:00:02.775Z,90.03
2019-02-10T06:05:03.231Z,90.05
2019-02-10T06:10:02.642Z,90.07
2019-02-10T06:15:02.988Z,90.08
2019-02-10T06:20:02.404Z,90.09
2019-02-10T06:25:02.864Z,90.11
2019-02-10T06:30:03.312Z,90.13
2019-02-10T06:35:02.720Z,90.14
2019-02-10T06:40:02.487Z,90.18
2019-02-10T06:45:02.853Z,90.2
2019-02-10T06:50:03.255Z,90.21
2019-02-10T06:55:02.639Z,90.23
2019-02-10T07:00:02.276Z,90.24
2019-02-10T07:05:01.811Z,90.23
2019-02-10T07:10:03.252Z,90.26
2019-02-10T07:15:02.683Z,90.26
2019-02-10T07:20:03.152Z,90.29
2019-02-10T07:25:02.526Z,90.29
2019-02-10T07:30:02.982Z,90.31
2019-02-10T07:35:02.396Z,90.34
2019-02-10T07:40:02.834Z,90.32
2019-02-10T07:45:03.186Z,90.35
2019-02-10T07:50:02.600Z,90.35
2019-02-10T07:55:03.053Z,90.37
2019-02-10T08:00:02.454Z,90.39
2019-02-10T08:05:02.838Z,90.39
2019-02-10T08:10:03.241Z,90.39
2019-02-10T08:15:02.666Z,90.43
2019-02-10T08:20:02.203Z,90.44
2019-02-10T08:25:02.630Z,90.47
2019-02-10T08:30:02.982Z,90.49
2019-02-10T08:35:02.397Z,90.52
2019-02-10T08:40:02.828Z,90.55
2019-02-10T08:45:03.174Z,90.57
2019-02-10T08:50:02.602Z,90.6
2019-02-10T08:55:03.038Z,90.65
2019-02-10T09:00:02.468Z,90.68
2019-02-10T09:05:02.832Z,90.73
2019-02-10T09:10:03.245Z,90.74
2019-02-10T09:15:02.676Z,90.76
2019-02-10T09:20:03.129Z,90.78
2019-02-10T09:25:02.520Z,90.81
2019-02-10T09:30:03.216Z,90.78
2019-02-10T09:35:01.852Z,90.76
2019-02-10T09:40:03.267Z,90.75
2019-02-10T09:45:02.648Z,90.72
2019-02-10T09:50:02.992Z,90.72
2019-02-10T09:55:02.466Z,90.71
2019-02-10T10:00:02.802Z,90.7
2019-02-10T10:05:03.311Z,90.66
2019-02-10T10:10:02.763Z,90.67
2019-02-10T10:15:03.190Z,90.63
2019-02-10T10:20:02.564Z,90.58
2019-02-10T10:25:02.934Z,90.62
2019-02-10T10:30:03.277Z,90.64
2019-02-10T10:35:02.690Z,90.67
2019-02-10T10:40:03.140Z,90.69
2019-02-10T10:45:02.494Z,90.68
2019-02-10T10:50:02.852Z,90.67
2019-02-10T10:55:03.281Z,90.65
2019-02-10T11:00:02.872Z,90.66
2019-02-10T11:05:03.303Z,90.68
2019-02-10T11:10:02.695Z,90.65
2019-02-10T11:15:03.055Z,90.57
2019-02-10T11:20:02.477Z,90.51
2019-02-10T11:25:02.924Z,90.5
2019-02-10T11:30:04.001Z,90.51
2019-02-10T11:35:02.388Z,90.47
2019-02-10T11:40:02.823Z,90.49
2019-02-10T11:45:03.256Z,90.47
2019-02-10T11:50:02.685Z,90.44
2019-02-10T11:55:03.027Z,90.39
2019-02-10T12:00:02.445Z,90.36
2019-02-10T12:05:02.885Z,90.29
2019-02-10T12:10:03.564Z,90.24
2019-02-10T12:15:02.958Z,90.21
2019-02-10T12:20:03.395Z,90.18
2019-02-10T12:25:02.735Z,90.19
2019-02-10T12:30:03.293Z,90.25
2019-02-10T12:35:02.792Z,90.29
2019-02-10T12:40:02.421Z,90.29
2019-02-10T12:45:02.739Z,90.22
2019-02-10T12:50:03.176Z,90.14
2019-02-10T12:55:02.607Z,90.1
2019-02-10T13:00:03.048Z,90.03
2019-02-10T13:05:02.461Z,89.92
2019-02-10T13:10:08.043Z,89.87
2019-02-10T13:15:02.850Z,89.77
2019-02-10T13:20:03.281Z,89.7
2019-02-10T13:25:02.689Z,89.69
2019-02-10T13:30:03.039Z,89.79
2019-02-10T13:35:02.394Z,89.83
2019-02-10T13:40:02.796Z,89.87
2019-02-10T13:45:03.163Z,89.99
2019-02-10T13:50:02.563Z,90.02
2019-02-10T13:55:03.003Z,89.98
2019-02-10T14:00:02.420Z,89.93
2019-02-10T14:05:02.763Z,89.92
2019-02-10T14:10:03.213Z,89.91
2019-02-10T14:15:02.650Z,89.95
2019-02-10T14:20:03.071Z,89.86
2019-02-10T14:25:02.488Z,89.79
2019-02-10T14:30:02.835Z,89.86
2019-02-10T14:35:03.173Z,89.85
2019-02-10T14:40:02.590Z,89.83
2019-02-10T14:45:02.937Z,89.87
2019-02-10T14:50:03.374Z,89.88
2019-02-10T14:55:02.792Z,89.93
2019-02-10T15:00:03.136Z,89.95
2019-02-10T15:05:02.552Z,90.01
2019-02-10T15:10:02.999Z,90.02
2019-02-10T15:15:02.419Z,90.07
2019-02-10T15:20:03.341Z,90.08
2019-02-10T15:25:01.879Z,90.13
2019-02-10T15:30:03.239Z,90.17
2019-02-10T15:35:02.660Z,90.17
2019-02-10T15:40:03.135Z,90.17
2019-02-10T15:45:02.517Z,90.16
2019-02-10T15:50:03.820Z,90.14
2019-02-10T15:55:03.345Z,90.12
2019-02-10T16:00:02.917Z,90.06
2019-02-10T16:05:03.309Z,90.05
2019-02-10T16:10:02.705Z,90.0
2019-02-10T16:15:03.164Z,89.97
2019-02-10T16:20:02.530Z,89.96
2019-02-10T16:25:02.887Z,89.93
2019-02-10T16:30:03.260Z,89.89
2019-02-10T16:35:02.655Z,89.75
2019-02-10T16:40:03.204Z,89.67
2019-02-10T16:45:02.607Z,89.56
2019-02-10T16:50:02.996Z,89.49
2019-02-10T16:55:02.376Z,89.35
2019-02-10T17:00:02.848Z,89.26
2019-02-10T17:05:03.300Z,89.21
2019-02-10T17:10:02.673Z,89.25
2019-02-10T17:15:03.060Z,89.26
2019-02-10T17:20:02.436Z,89.24
2019-02-10T17:25:02.816Z,89.24
2019-02-10T17:30:03.275Z,89.25
2019-02-10T17:35:02.632Z,89.29
2019-02-10T17:40:03.124Z,89.29
2019-02-10T17:45:02.529Z,89.34
2019-02-10T17:50:02.941Z,89.35
2019-02-10T17:55:03.428Z,89.44
2019-02-10T18:00:02.844Z,89.48
2019-02-10T18:05:03.265Z,89.56
2019-02-10T18:10:02.761Z,89.6
2019-02-10T18:15:03.116Z,89.65
2019-02-10T18:20:02.534Z,89.71
2019-02-10T18:25:03.005Z,89.67
2019-02-10T18:30:02.395Z,89.72
2019-02-10T18:35:02.721Z,89.75
2019-02-10T18:40:03.182Z,89.77
2019-02-10T18:45:02.590Z,89.82
2019-02-10T18:50:02.927Z,89.84
2019-02-10T18:55:03.322Z,89.87
2019-02-10T19:00:02.692Z,89.9
2019-02-10T19:05:03.041Z,89.96
2019-02-10T19:10:02.460Z,90.03
2019-02-10T19:15:02.901Z,90.0
2019-02-10T19:20:03.225Z,89.99
2019-02-10T19:25:02.690Z,89.96
2019-02-10T19:30:03.130Z,89.95
2019-02-10T19:35:02.539Z,89.98
2019-02-10T19:40:02.964Z,89.96
2019-02-10T19:45:03.324Z,89.98
2019-02-10T19:50:01.921Z,89.98
2019-02-10T19:55:03.395Z,89.99
2019-02-10T20:00:02.787Z,89.99
2019-02-10T20:05:03.242Z,90.02
2019-02-10T20:10:02.652Z,90.02
2019-02-10T20:15:03.041Z,90.03
2019-02-10T20:20:02.469Z,90.02
2019-02-10T20:25:02.864Z,90.03
2019-02-10T20:30:03.206Z,90.04
2019-02-10T20:35:02.624Z,90.05
2019-02-10T20:40:03.067Z,90.04
2019-02-10T20:45:02.485Z,90.07
2019-02-10T20:50:02.826Z,90.12
2019-02-10T20:55:03.259Z,90.08
2019-02-10T21:00:02.689Z,90.01
2019-02-10T21:05:03.044Z,89.91
2019-02-10T21:10:02.447Z,89.88
2019-02-10T21:15:02.890Z,89.83
2019-02-10T21:20:03.340Z,89.8
2019-02-10T21:25:03.296Z,89.74
2019-02-10T21:30:02.794Z,89.73
2019-02-10T21:35:03.132Z,89.75
2019-02-10T21:40:02.536Z,89.78
2019-02-10T21:45:02.893Z,89.85
2019-02-10T21:50:04.408Z,89.88
2019-02-10T21:55:02.846Z,89.9
2019-02-10T22:00:03.209Z,89.98
2019-02-10T22:05:02.655Z,90.01
2019-02-10T22:10:03.056Z,89.96
2019-02-10T22:15:02.385Z,89.94
2019-02-10T22:20:02.718Z,89.98
2019-02-10T22:25:03.055Z,90.02
2019-02-10T22:30:02.474Z,90.03
2019-02-10T22:35:02.818Z,90.05
2019-02-10T22:40:03.262Z,90.07
2019-02-10T22:45:02.674Z,90.12
2019-02-10T22:50:03.018Z,90.16
2019-02-10T22:55:02.441Z,90.17
2019-02-10T23:00:02.782Z,90.21
2019-02-10T23:05:03.129Z,90.23
2019-02-10T23:10:02.531Z,90.31
2019-02-10T23:15:02.900Z,90.34
2019-02-10T23:20:03.323Z,90.27
2019-02-10T23:25:02.735Z,90.19
2019-02-10T23:30:03.075Z,90.18
2019-02-10T23:35:02.505Z,90.2
2019-02-10T23:40:03.137Z,90.22
2019-02-10T23:45:01.871Z,90.24
2019-02-10T23:50:03.218Z,90.24
2019-02-10T23:55:02.624Z,90.23
